sensor_id;sensor_type;location;lat;lon;timestamp;pressure;altitude;pressure_sealevel;temperature;humidity
2000;BME280;1001;48.87406500;9.59633600;2022-07-29T00:00:43;94962.97;;;17.25;100.00
2000;BME280;1001;48.87406500;9.59633600;2022-07-29T00:03:11;94965.06;;;17.28;100.00
2000;BME280;1001;48.87406500;9.59633600;2022-07-29T00:05:40;94973.44;;;17.40;100.00
2000;BME280;1001;48.87406500;9.59633600;2022-07-29T00:08:08;94970.53;;;17.42;100.00
2000;BME280;1001;48.87406500;9.59633600;2022-07-29T00:10:35;94982.09;;;17.51;100.00
2000;BME280;1001;48.87406500;9.59633600;2022-07-29T00:13:02;94979.50;;;17.46;100.00
2000;BME280;1001;48.87406500;9.59633600;2022-07-29T00:15:28;94984.75;;;17.51;100.00
2000;BME280;1001;48.87406500;9.59633600;2022-07-29T00:17:55;94976.88;;;17.41;100.00
2000;BME280;1001;48.87406500;9.59633600;2022-07-29T00:20:24;94984.50;;;17.47;100.00
2000;BME280;1001;48.87406500;9.59633600;2022-07-29T00:22:53;94987.94;;;17.53;100.00
2000;BME280;1001;48.87406500;9.59633600;2022-07-29T00:25:20;94977.91;;;17.45;100.00
2000;BME280;1001;48.87406500;9.59633600;2022-07-29T00:27:47;94971.28;;;17.47;100.00
2000;BME280;1001;48.87406500;9.59633600;2022-07-29T00:30:16;94970.50;;;17.47;100.00
2000;BME280;1001;48.87406500;9.59633600;2022-07-29T00:32:43;94970.53;;;17.42;100.00
2000;BME280;1001;48.87406500;9.59633600;2022-07-29T00:35:10;94973.66;;;17.49;100.00
2000;BME280;1001;48.87406500;9.59633600;2022-07-29T00:37:56;94968.38;;;17.49;100.00
2000;BME280;1001;48.87406500;9.59633600;2022-07-29T00:40:23;94971.50;;;17.61;100.00
2000;BME280;1001;48.87406500;9.59633600;2022-07-29T00:42:52;94968.03;;;17.60;100.00
2000;BME280;1001;48.87406500;9.59633600;2022-07-29T00:45:19;94966.69;;;17.68;100.00
2000;BME280;1001;48.87406500;9.59633600;2022-07-29T00:47:47;94958.97;;;17.77;100.00
2000;BME280;1001;48.87406500;9.59633600;2022-07-29T00:50:14;94954.69;;;17.81;100.00
2000;BME280;1001;48.87406500;9.59633600;2022-07-29T00:52:42;94937.25;;;17.75;100.00
2000;BME280;1001;48.87406500;9.59633600;2022-07-29T00:55:12;94949.56;;;17.89;100.00
2000;BME280;1001;48.87406500;9.59633600;2022-07-29T00:57:41;94944.22;;;17.99;100.00
2000;BME280;1001;48.87406500;9.59633600;2022-07-29T01:00:12;94949.91;;;18.11;100.00
2000;BME280;1001;48.87406500;9.59633600;2022-07-29T01:02:40;94934.03;;;18.11;100.00
2000;BME280;1001;48.87406500;9.59633600;2022-07-29T01:05:07;94940.00;;;18.22;100.00
2000;BME280;1001;48.87406500;9.59633600;2022-07-29T01:07:35;94943.25;;;18.19;100.00
2000;BME280;1001;48.87406500;9.59633600;2022-07-29T01:10:06;94938.22;;;18.17;100.00
2000;BME280;1001;48.87406500;9.59633600;2022-07-29T01:12:37;94936.91;;;18.15;100.00
2000;BME280;1001;48.87406500;9.59633600;2022-07-29T01:15:05;94928.50;;;18.08;100.00
2000;BME280;1001;48.87406500;9.59633600;2022-07-29T01:17:37;94934.38;;;18.05;100.00
2000;BME280;1001;48.87406500;9.59633600;2022-07-29T01:20:13;94932.53;;;18.05;100.00
2000;BME280;1001;48.87406500;9.59633600;2022-07-29T01:23:10;94932.75;;;18.09;100.00
2000;BME280;1001;48.87406500;9.59633600;2022-07-29T01:26:02;94929.63;;;18.02;100.00
2000;BME280;1001;48.87406500;9.59633600;2022-07-29T01:29:00;94936.06;;;17.96;100.00
2000;BME280;1001;48.87406500;9.59633600;2022-07-29T01:31:33;94915.94;;;17.95;100.00
2000;BME280;1001;48.87406500;9.59633600;2022-07-29T01:34:04;94928.28;;;18.04;100.00
2000;BME280;1001;48.87406500;9.59633600;2022-07-29T01:36:40;94921.69;;;18.02;100.00
2000;BME280;1001;48.87406500;9.59633600;2022-07-29T01:39:11;94920.69;;;17.98;100.00
2000;BME280;1001;48.87406500;9.59633600;2022-07-29T01:41:43;94927.03;;;17.97;100.00
2000;BME280;1001;48.87406500;9.59633600;2022-07-29T01:44:17;94929.88;;;18.05;100.00
2000;BME280;1001;48.87406500;9.59633600;2022-07-29T01:46:51;94922.75;;;18.01;100.00
2000;BME280;1001;48.87406500;9.59633600;2022-07-29T01:49:25;94928.34;;;17.99;100.00
2000;BME280;1001;48.87406500;9.59633600;2022-07-29T01:51:59;94928.91;;;17.91;100.00
2000;BME280;1001;48.87406500;9.59633600;2022-07-29T01:54:32;94922.66;;;17.82;100.00
2000;BME280;1001;48.87406500;9.59633600;2022-07-29T01:57:04;94932.50;;;17.77;100.00
2000;BME280;1001;48.87406500;9.59633600;2022-07-29T01:59:35;94936.53;;;17.69;100.00
2000;BME280;1001;48.87406500;9.59633600;2022-07-29T02:02:04;94928.66;;;17.59;100.00
2000;BME280;1001;48.87406500;9.59633600;2022-07-29T02:04:35;94927.22;;;17.38;100.00
2000;BME280;1001;48.87406500;9.59633600;2022-07-29T02:07:05;94929.22;;;17.12;100.00
2000;BME280;1001;48.87406500;9.59633600;2022-07-29T02:09:36;94932.41;;;17.09;100.00
2000;BME280;1001;48.87406500;9.59633600;2022-07-29T02:12:07;94928.44;;;17.07;100.00
2000;BME280;1001;48.87406500;9.59633600;2022-07-29T02:14:39;94937.72;;;16.99;100.00
2000;BME280;1001;48.87406500;9.59633600;2022-07-29T02:17:07;94933.50;;;17.03;100.00
2000;BME280;1001;48.87406500;9.59633600;2022-07-29T02:19:37;94930.09;;;16.92;100.00
2000;BME280;1001;48.87406500;9.59633600;2022-07-29T02:22:05;94926.41;;;16.98;100.00
2000;BME280;1001;48.87406500;9.59633600;2022-07-29T02:24:33;94926.06;;;17.10;100.00
2000;BME280;1001;48.87406500;9.59633600;2022-07-29T02:27:03;94920.75;;;17.15;100.00
2000;BME280;1001;48.87406500;9.59633600;2022-07-29T02:29:32;94927.78;;;17.30;100.00
2000;BME280;1001;48.87406500;9.59633600;2022-07-29T02:32:03;94915.69;;;17.19;100.00
2000;BME280;1001;48.87406500;9.59633600;2022-07-29T02:34:30;94921.75;;;17.24;100.00
2000;BME280;1001;48.87406500;9.59633600;2022-07-29T02:36:59;94923.44;;;17.10;100.00
2000;BME280;1001;48.87406500;9.59633600;2022-07-29T02:39:26;94919.72;;;17.06;100.00
2000;BME280;1001;48.87406500;9.59633600;2022-07-29T02:41:58;94931.59;;;17.09;100.00
2000;BME280;1001;48.87406500;9.59633600;2022-07-29T02:44:27;94935.84;;;17.10;100.00
2000;BME280;1001;48.87406500;9.59633600;2022-07-29T02:46:59;94926.59;;;17.07;100.00
2000;BME280;1001;48.87406500;9.59633600;2022-07-29T02:49:35;94928.47;;;17.01;100.00
2000;BME280;1001;48.87406500;9.59633600;2022-07-29T02:52:06;94930.41;;;16.91;100.00
2000;BME280;1001;48.87406500;9.59633600;2022-07-29T02:54:41;94922.50;;;16.81;100.00
2000;BME280;1001;48.87406500;9.59633600;2022-07-29T02:57:16;94926.25;;;16.75;100.00
2000;BME280;1001;48.87406500;9.59633600;2022-07-29T02:59:45;94925.44;;;16.79;100.00
2000;BME280;1001;48.87406500;9.59633600;2022-07-29T03:02:15;94925.38;;;16.89;100.00
2000;BME280;1001;48.87406500;9.59633600;2022-07-29T03:04:44;94931.13;;;16.96;100.00
2000;BME280;1001;48.87406500;9.59633600;2022-07-29T03:07:15;94922.16;;;16.97;100.00
2000;BME280;1001;48.87406500;9.59633600;2022-07-29T03:09:45;94916.69;;;16.89;100.00
2000;BME280;1001;48.87406500;9.59633600;2022-07-29T03:12:13;94924.34;;;16.85;100.00
2000;BME280;1001;48.87406500;9.59633600;2022-07-29T03:14:41;94921.13;;;16.93;100.00
2000;BME280;1001;48.87406500;9.59633600;2022-07-29T03:17:09;94919.53;;;16.92;100.00
2000;BME280;1001;48.87406500;9.59633600;2022-07-29T03:19:36;94925.34;;;16.94;100.00
2000;BME280;1001;48.87406500;9.59633600;2022-07-29T03:22:04;94929.28;;;16.97;100.00
2000;BME280;1001;48.87406500;9.59633600;2022-07-29T03:24:32;94919.00;;;16.95;100.00
2000;BME280;1001;48.87406500;9.59633600;2022-07-29T03:27:02;94913.22;;;16.93;100.00
2000;BME280;1001;48.87406500;9.59633600;2022-07-29T03:29:29;94917.72;;;16.88;100.00
2000;BME280;1001;48.87406500;9.59633600;2022-07-29T03:31:56;94918.53;;;16.88;100.00
2000;BME280;1001;48.87406500;9.59633600;2022-07-29T03:34:22;94914.25;;;16.92;100.00
2000;BME280;1001;48.87406500;9.59633600;2022-07-29T03:36:49;94908.50;;;16.80;100.00
2000;BME280;1001;48.87406500;9.59633600;2022-07-29T03:39:21;94925.59;;;16.98;100.00
2000;BME280;1001;48.87406500;9.59633600;2022-07-29T03:41:53;94906.25;;;17.08;100.00
2000;BME280;1001;48.87406500;9.59633600;2022-07-29T03:44:21;94917.28;;;17.20;100.00
2000;BME280;1001;48.87406500;9.59633600;2022-07-29T03:46:49;94915.69;;;17.19;100.00
2000;BME280;1001;48.87406500;9.59633600;2022-07-29T03:49:18;94913.81;;;17.24;100.00
2000;BME280;1001;48.87406500;9.59633600;2022-07-29T03:51:46;94920.78;;;17.10;100.00
2000;BME280;1001;48.87406500;9.59633600;2022-07-29T03:54:13;94931.09;;;17.07;100.00
2000;BME280;1001;48.87406500;9.59633600;2022-07-29T03:56:43;94920.28;;;17.08;100.00
2000;BME280;1001;48.87406500;9.59633600;2022-07-29T03:59:13;94921.09;;;17.04;100.00
2000;BME280;1001;48.87406500;9.59633600;2022-07-29T04:01:41;94919.00;;;17.00;100.00
2000;BME280;1001;48.87406500;9.59633600;2022-07-29T04:04:08;94923.97;;;17.07;100.00
2000;BME280;1001;48.87406500;9.59633600;2022-07-29T04:06:42;94921.03;;;17.09;100.00
2000;BME280;1001;48.87406500;9.59633600;2022-07-29T04:09:09;94913.41;;;17.02;100.00
2000;BME280;1001;48.87406500;9.59633600;2022-07-29T04:11:41;94924.78;;;17.02;100.00
2000;BME280;1001;48.87406500;9.59633600;2022-07-29T04:14:08;94915.03;;;16.98;100.00
2000;BME280;1001;48.87406500;9.59633600;2022-07-29T04:16:35;94922.16;;;16.97;100.00
2000;BME280;1001;48.87406500;9.59633600;2022-07-29T04:19:03;94926.91;;;17.00;100.00
2000;BME280;1001;48.87406500;9.59633600;2022-07-29T04:21:29;94929.53;;;17.06;100.00
2000;BME280;1001;48.87406500;9.59633600;2022-07-29T04:23:56;94940.31;;;17.14;100.00
2000;BME280;1001;48.87406500;9.59633600;2022-07-29T04:26:23;94940.81;;;17.16;100.00
2000;BME280;1001;48.87406500;9.59633600;2022-07-29T04:28:51;94950.78;;;17.29;100.00
2000;BME280;1001;48.87406500;9.59633600;2022-07-29T04:31:18;94953.84;;;17.46;100.00
2000;BME280;1001;48.87406500;9.59633600;2022-07-29T04:33:44;94949.63;;;17.45;100.00
2000;BME280;1001;48.87406500;9.59633600;2022-07-29T04:36:11;94951.19;;;17.51;99.60
2000;BME280;1001;48.87406500;9.59633600;2022-07-29T04:38:39;94946.97;;;17.55;99.29
2000;BME280;1001;48.87406500;9.59633600;2022-07-29T04:41:09;94944.56;;;17.54;98.75
2000;BME280;1001;48.87406500;9.59633600;2022-07-29T04:43:36;94952.66;;;17.67;98.40
2000;BME280;1001;48.87406500;9.59633600;2022-07-29T04:46:06;94957.03;;;17.82;96.87
2000;BME280;1001;48.87406500;9.59633600;2022-07-29T04:48:35;94952.22;;;17.89;95.95
2000;BME280;1001;48.87406500;9.59633600;2022-07-29T04:51:02;94958.50;;;17.98;95.95
2000;BME280;1001;48.87406500;9.59633600;2022-07-29T04:53:29;94961.72;;;17.95;96.81
2000;BME280;1001;48.87406500;9.59633600;2022-07-29T04:55:56;94954.66;;;17.86;96.79
2000;BME280;1001;48.87406500;9.59633600;2022-07-29T04:58:22;94957.03;;;17.82;98.64
2000;BME280;1001;48.87406500;9.59633600;2022-07-29T05:00:49;94962.78;;;17.94;98.97
2000;BME280;1001;48.87406500;9.59633600;2022-07-29T05:03:18;94969.38;;;17.97;99.06
2000;BME280;1001;48.87406500;9.59633600;2022-07-29T05:05:45;94958.19;;;18.05;98.70
2000;BME280;1001;48.87406500;9.59633600;2022-07-29T05:08:11;94962.72;;;18.28;95.98
2000;BME280;1001;48.87406500;9.59633600;2022-07-29T05:10:38;94967.69;;;18.34;94.75
2000;BME280;1001;48.87406500;9.59633600;2022-07-29T05:13:05;94968.50;;;18.35;94.24
2000;BME280;1001;48.87406500;9.59633600;2022-07-29T05:15:32;94968.44;;;18.40;93.89
2000;BME280;1001;48.87406500;9.59633600;2022-07-29T05:18:00;94959.69;;;18.40;94.82
2000;BME280;1001;48.87406500;9.59633600;2022-07-29T05:20:29;94953.84;;;18.43;95.03
2000;BME280;1001;48.87406500;9.59633600;2022-07-29T05:22:56;94963.84;;;18.51;97.25
2000;BME280;1001;48.87406500;9.59633600;2022-07-29T05:25:26;94959.25;;;18.61;98.27
2000;BME280;1001;48.87406500;9.59633600;2022-07-29T05:27:53;94955.34;;;18.54;99.88
2000;BME280;1001;48.87406500;9.59633600;2022-07-29T05:30:23;94959.91;;;18.72;100.00
2000;BME280;1001;48.87406500;9.59633600;2022-07-29T05:32:50;94966.72;;;19.01;100.00
2000;BME280;1001;48.87406500;9.59633600;2022-07-29T05:35:16;94977.28;;;19.25;99.06
2000;BME280;1001;48.87406500;9.59633600;2022-07-29T05:37:44;94971.38;;;19.52;95.96
2000;BME280;1001;48.87406500;9.59633600;2022-07-29T05:40:11;94977.72;;;19.69;94.49
2000;BME280;1001;48.87406500;9.59633600;2022-07-29T05:42:38;94980.16;;;19.85;90.21
2000;BME280;1001;48.87406500;9.59633600;2022-07-29T05:45:05;94976.97;;;20.01;90.30
2000;BME280;1001;48.87406500;9.59633600;2022-07-29T05:47:32;94985.16;;;20.18;88.55
2000;BME280;1001;48.87406500;9.59633600;2022-07-29T05:49:59;94982.69;;;20.41;88.16
2000;BME280;1001;48.87406500;9.59633600;2022-07-29T05:52:26;94973.59;;;20.60;86.70
2000;BME280;1001;48.87406500;9.59633600;2022-07-29T05:54:54;94986.09;;;20.73;86.83
2000;BME280;1001;48.87406500;9.59633600;2022-07-29T05:57:23;94984.44;;;21.05;86.43
2000;BME280;1001;48.87406500;9.59633600;2022-07-29T05:59:50;95001.66;;;21.21;83.37
2000;BME280;1001;48.87406500;9.59633600;2022-07-29T06:02:17;94986.97;;;21.23;82.56
2000;BME280;1001;48.87406500;9.59633600;2022-07-29T06:04:44;94997.72;;;21.32;81.98
2000;BME280;1001;48.87406500;9.59633600;2022-07-29T06:07:11;95005.44;;;21.20;82.48
2000;BME280;1001;48.87406500;9.59633600;2022-07-29T06:09:38;94997.44;;;21.06;81.57
2000;BME280;1001;48.87406500;9.59633600;2022-07-29T06:12:07;95002.63;;;20.84;83.07
2000;BME280;1001;48.87406500;9.59633600;2022-07-29T06:14:34;95009.25;;;21.14;86.41
2000;BME280;1001;48.87406500;9.59633600;2022-07-29T06:17:03;95005.91;;;21.22;83.25
2000;BME280;1001;48.87406500;9.59633600;2022-07-29T06:19:30;95012.56;;;21.46;84.26
2000;BME280;1001;48.87406500;9.59633600;2022-07-29T06:21:56;95008.25;;;21.37;84.62
2000;BME280;1001;48.87406500;9.59633600;2022-07-29T06:24:23;95003.03;;;21.81;83.89
2000;BME280;1001;48.87406500;9.59633600;2022-07-29T06:26:50;95002.94;;;22.30;82.58
2000;BME280;1001;48.87406500;9.59633600;2022-07-29T06:29:18;95005.16;;;22.59;79.40
2000;BME280;1001;48.87406500;9.59633600;2022-07-29T06:31:45;95003.22;;;22.82;79.53
2000;BME280;1001;48.87406500;9.59633600;2022-07-29T06:34:12;95012.47;;;22.76;80.26
2000;BME280;1001;48.87406500;9.59633600;2022-07-29T06:36:39;95017.09;;;22.62;81.19
2000;BME280;1001;48.87406500;9.59633600;2022-07-29T06:39:06;95020.66;;;23.19;78.57
2000;BME280;1001;48.87406500;9.59633600;2022-07-29T06:41:33;95021.75;;;22.78;81.14
2000;BME280;1001;48.87406500;9.59633600;2022-07-29T06:44:00;95027.91;;;22.96;79.04
2000;BME280;1001;48.87406500;9.59633600;2022-07-29T06:46:28;95031.41;;;23.05;79.23
2000;BME280;1001;48.87406500;9.59633600;2022-07-29T06:48:55;95034.28;;;23.17;76.15
2000;BME280;1001;48.87406500;9.59633600;2022-07-29T06:51:22;95038.81;;;23.64;72.65
2000;BME280;1001;48.87406500;9.59633600;2022-07-29T06:53:51;95045.78;;;23.83;75.05
2000;BME280;1001;48.87406500;9.59633600;2022-07-29T06:56:19;95041.69;;;23.94;73.42
2000;BME280;1001;48.87406500;9.59633600;2022-07-29T06:58:46;95043.06;;;24.60;72.82
2000;BME280;1001;48.87406500;9.59633600;2022-07-29T07:01:13;95050.78;;;24.61;69.67
2000;BME280;1001;48.87406500;9.59633600;2022-07-29T07:03:41;95042.47;;;24.03;69.64
2000;BME280;1001;48.87406500;9.59633600;2022-07-29T07:06:08;95057.72;;;24.02;72.16
2000;BME280;1001;48.87406500;9.59633600;2022-07-29T07:08:35;95050.50;;;24.11;71.41
2000;BME280;1001;48.87406500;9.59633600;2022-07-29T07:11:02;95048.56;;;24.63;72.50
2000;BME280;1001;48.87406500;9.59633600;2022-07-29T07:13:29;95049.13;;;24.94;69.56
2000;BME280;1001;48.87406500;9.59633600;2022-07-29T07:16:00;95044.91;;;24.93;68.10
2000;BME280;1001;48.87406500;9.59633600;2022-07-29T07:18:26;95052.25;;;25.05;69.71
2000;BME280;1001;48.87406500;9.59633600;2022-07-29T07:20:55;95050.84;;;25.08;62.68
2000;BME280;1001;48.87406500;9.59633600;2022-07-29T07:23:23;95041.78;;;24.91;65.61
2000;BME280;1001;48.87406500;9.59633600;2022-07-29T07:25:50;95047.16;;;24.57;67.00
2000;BME280;1001;48.87406500;9.59633600;2022-07-29T07:28:16;95060.44;;;24.11;67.04
2000;BME280;1001;48.87406500;9.59633600;2022-07-29T07:30:44;95047.69;;;24.08;69.26
2000;BME280;1001;48.87406500;9.59633600;2022-07-29T07:33:14;95052.22;;;24.16;69.24
2000;BME280;1001;48.87406500;9.59633600;2022-07-29T07:35:41;95052.50;;;23.97;68.56
2000;BME280;1001;48.87406500;9.59633600;2022-07-29T07:38:11;95054.91;;;24.16;65.89
2000;BME280;1001;48.87406500;9.59633600;2022-07-29T07:40:38;95052.06;;;24.38;65.95
2000;BME280;1001;48.87406500;9.59633600;2022-07-29T07:43:05;95051.44;;;24.24;66.00
2000;BME280;1001;48.87406500;9.59633600;2022-07-29T07:45:33;95056.03;;;24.06;66.50
2000;BME280;1001;48.87406500;9.59633600;2022-07-29T07:48:02;95050.91;;;24.73;68.52
2000;BME280;1001;48.87406500;9.59633600;2022-07-29T07:50:29;95055.28;;;25.33;64.15
2000;BME280;1001;48.87406500;9.59633600;2022-07-29T07:52:56;95055.78;;;25.64;66.03
2000;BME280;1001;48.87406500;9.59633600;2022-07-29T07:55:25;95056.50;;;25.06;63.90
2000;BME280;1001;48.87406500;9.59633600;2022-07-29T07:57:52;95058.69;;;24.32;65.14
2000;BME280;1001;48.87406500;9.59633600;2022-07-29T08:00:19;95044.88;;;24.13;67.38
2000;BME280;1001;48.87406500;9.59633600;2022-07-29T08:02:46;95057.41;;;24.55;66.68
2000;BME280;1001;48.87406500;9.59633600;2022-07-29T08:05:13;95052.09;;;24.29;66.36
2000;BME280;1001;48.87406500;9.59633600;2022-07-29T08:07:43;95042.94;;;24.05;68.15
2000;BME280;1001;48.87406500;9.59633600;2022-07-29T08:10:10;95060.56;;;24.14;68.43
2000;BME280;1001;48.87406500;9.59633600;2022-07-29T08:12:38;95059.75;;;23.88;70.96
2000;BME280;1001;48.87406500;9.59633600;2022-07-29T08:15:06;95055.34;;;23.84;71.99
2000;BME280;1001;48.87406500;9.59633600;2022-07-29T08:17:34;95063.03;;;24.02;72.54
2000;BME280;1001;48.87406500;9.59633600;2022-07-29T08:20:00;95062.63;;;24.34;69.86
2000;BME280;1001;48.87406500;9.59633600;2022-07-29T08:22:27;95059.00;;;24.30;68.85
2000;BME280;1001;48.87406500;9.59633600;2022-07-29T08:24:56;95071.25;;;24.40;68.26
2000;BME280;1001;48.87406500;9.59633600;2022-07-29T08:27:23;95061.16;;;24.54;67.85
2000;BME280;1001;48.87406500;9.59633600;2022-07-29T08:29:53;95071.38;;;24.69;66.14
2000;BME280;1001;48.87406500;9.59633600;2022-07-29T08:32:21;95070.50;;;25.12;66.53
2000;BME280;1001;48.87406500;9.59633600;2022-07-29T08:34:48;95070.63;;;25.61;69.47
2000;BME280;1001;48.87406500;9.59633600;2022-07-29T08:37:14;95070.72;;;25.65;63.99
2000;BME280;1001;48.87406500;9.59633600;2022-07-29T08:39:41;95068.56;;;26.08;61.13
2000;BME280;1001;48.87406500;9.59633600;2022-07-29T08:42:11;95078.69;;;25.82;65.57
2000;BME280;1001;48.87406500;9.59633600;2022-07-29T08:44:38;95070.97;;;25.51;64.53
2000;BME280;1001;48.87406500;9.59633600;2022-07-29T08:47:06;95074.41;;;26.10;60.53
2000;BME280;1001;48.87406500;9.59633600;2022-07-29T08:49:34;95073.03;;;26.25;61.75
2000;BME280;1001;48.87406500;9.59633600;2022-07-29T08:52:02;95070.81;;;26.27;63.05
2000;BME280;1001;48.87406500;9.59633600;2022-07-29T08:54:29;95072.66;;;26.14;60.70
2000;BME280;1001;48.87406500;9.59633600;2022-07-29T08:56:59;95066.94;;;25.95;60.90
2000;BME280;1001;48.87406500;9.59633600;2022-07-29T08:59:27;95073.56;;;25.68;61.98
2000;BME280;1001;48.87406500;9.59633600;2022-07-29T09:01:57;95082.53;;;26.22;64.55
2000;BME280;1001;48.87406500;9.59633600;2022-07-29T09:04:29;95085.97;;;26.64;60.77
2000;BME280;1001;48.87406500;9.59633600;2022-07-29T09:06:57;95077.81;;;26.73;57.48
2000;BME280;1001;48.87406500;9.59633600;2022-07-29T09:09:26;95080.41;;;26.07;61.61
2000;BME280;1001;48.87406500;9.59633600;2022-07-29T09:11:54;95071.72;;;26.10;60.14
2000;BME280;1001;48.87406500;9.59633600;2022-07-29T09:14:22;95066.84;;;25.83;58.15
2000;BME280;1001;48.87406500;9.59633600;2022-07-29T09:16:51;95067.31;;;25.56;62.11
2000;BME280;1001;48.87406500;9.59633600;2022-07-29T09:19:27;95065.00;;;25.75;66.53
2000;BME280;1001;48.87406500;9.59633600;2022-07-29T09:21:56;95071.00;;;26.22;60.07
2000;BME280;1001;48.87406500;9.59633600;2022-07-29T09:24:38;95065.75;;;26.46;61.78
2000;BME280;1001;48.87406500;9.59633600;2022-07-29T09:27:19;95074.00;;;26.74;57.99
2000;BME280;1001;48.87406500;9.59633600;2022-07-29T09:29:48;95077.56;;;26.66;62.29
2000;BME280;1001;48.87406500;9.59633600;2022-07-29T09:32:21;95069.75;;;26.93;60.44
2000;BME280;1001;48.87406500;9.59633600;2022-07-29T09:34:49;95084.75;;;26.74;58.30
2000;BME280;1001;48.87406500;9.59633600;2022-07-29T09:37:26;95077.91;;;26.64;59.24
2000;BME280;1001;48.87406500;9.59633600;2022-07-29T09:39:53;95078.81;;;27.01;59.42
2000;BME280;1001;48.87406500;9.59633600;2022-07-29T09:42:27;95077.22;;;26.34;58.06
2000;BME280;1001;48.87406500;9.59633600;2022-07-29T09:44:54;95075.66;;;26.87;61.04
2000;BME280;1001;48.87406500;9.59633600;2022-07-29T09:47:21;95082.84;;;27.07;59.95
2000;BME280;1001;48.87406500;9.59633600;2022-07-29T09:49:54;95081.69;;;27.41;59.39
2000;BME280;1001;48.87406500;9.59633600;2022-07-29T09:52:23;95072.91;;;27.20;58.88
2000;BME280;1001;48.87406500;9.59633600;2022-07-29T09:54:50;95087.34;;;27.15;55.24
2000;BME280;1001;48.87406500;9.59633600;2022-07-29T09:57:23;95070.97;;;26.96;57.13
2000;BME280;1001;48.87406500;9.59633600;2022-07-29T09:59:58;95080.16;;;26.74;57.15
2000;BME280;1001;48.87406500;9.59633600;2022-07-29T10:02:29;95076.66;;;26.82;57.80
2000;BME280;1001;48.87406500;9.59633600;2022-07-29T10:04:59;95072.91;;;27.20;56.46
2000;BME280;1001;48.87406500;9.59633600;2022-07-29T10:07:26;95078.34;;;27.56;54.90
2000;BME280;1001;48.87406500;9.59633600;2022-07-29T10:09:54;95076.78;;;27.67;58.40
2000;BME280;1001;48.87406500;9.59633600;2022-07-29T10:12:21;95072.28;;;27.35;55.98
2000;BME280;1001;48.87406500;9.59633600;2022-07-29T10:14:49;95069.06;;;27.53;58.25
2000;BME280;1001;48.87406500;9.59633600;2022-07-29T10:17:17;95071.81;;;27.93;56.33
2000;BME280;1001;48.87406500;9.59633600;2022-07-29T10:19:45;95069.78;;;27.90;54.79
2000;BME280;1001;48.87406500;9.59633600;2022-07-29T10:22:13;95068.34;;;28.05;54.08
2000;BME280;1001;48.87406500;9.59633600;2022-07-29T10:24:40;95070.44;;;28.11;53.55
2000;BME280;1001;48.87406500;9.59633600;2022-07-29T10:27:08;95063.19;;;28.00;53.54
2000;BME280;1001;48.87406500;9.59633600;2022-07-29T10:29:35;95074.75;;;28.00;52.12
2000;BME280;1001;48.87406500;9.59633600;2022-07-29T10:32:31;95065.63;;;28.17;54.60
2000;BME280;1001;48.87406500;9.59633600;2022-07-29T10:35:15;95056.47;;;27.94;53.58
2000;BME280;1001;48.87406500;9.59633600;2022-07-29T10:38:30;95059.03;;;28.14;54.00
2000;BME280;1001;48.87406500;9.59633600;2022-07-29T10:41:11;95061.22;;;28.37;52.88
2000;BME280;1001;48.87406500;9.59633600;2022-07-29T10:43:58;95056.69;;;28.13;53.67
2000;BME280;1001;48.87406500;9.59633600;2022-07-29T10:46:27;95053.34;;;28.44;54.35
2000;BME280;1001;48.87406500;9.59633600;2022-07-29T10:49:12;95054.22;;;28.75;49.55
2000;BME280;1001;48.87406500;9.59633600;2022-07-29T10:51:58;95044.88;;;29.01;49.83
2000;BME280;1001;48.87406500;9.59633600;2022-07-29T10:54:41;95048.31;;;29.29;50.04
2000;BME280;1001;48.87406500;9.59633600;2022-07-29T10:57:28;95051.31;;;29.58;46.16
2000;BME280;1001;48.87406500;9.59633600;2022-07-29T11:00:28;95052.38;;;29.54;46.59
2000;BME280;1001;48.87406500;9.59633600;2022-07-29T11:02:55;95044.66;;;29.52;47.71
2000;BME280;1001;48.87406500;9.59633600;2022-07-29T11:05:23;95039.66;;;29.86;45.63
2000;BME280;1001;48.87406500;9.59633600;2022-07-29T11:08:17;95045.94;;;29.27;49.12
2000;BME280;1001;48.87406500;9.59633600;2022-07-29T11:10:49;95035.06;;;28.92;50.34
2000;BME280;1001;48.87406500;9.59633600;2022-07-29T11:13:50;95049.81;;;28.55;49.48
2000;BME280;1001;48.87406500;9.59633600;2022-07-29T11:16:21;95034.81;;;28.14;50.09
2000;BME280;1001;48.87406500;9.59633600;2022-07-29T11:19:20;95055.34;;;28.07;50.60
2000;BME280;1001;48.87406500;9.59633600;2022-07-29T11:21:48;95045.97;;;27.40;52.37
2000;BME280;1001;48.87406500;9.59633600;2022-07-29T11:24:18;95046.41;;;27.18;53.43
2000;BME280;1001;48.87406500;9.59633600;2022-07-29T11:27:15;95044.84;;;26.72;54.07
2000;BME280;1001;48.87406500;9.59633600;2022-07-29T11:29:54;95041.31;;;26.80;54.53
2000;BME280;1001;48.87406500;9.59633600;2022-07-29T11:32:24;95044.44;;;26.29;55.96
2000;BME280;1001;48.87406500;9.59633600;2022-07-29T11:35:14;95053.44;;;26.33;55.46
2000;BME280;1001;48.87406500;9.59633600;2022-07-29T11:37:42;95057.59;;;26.01;56.18
2000;BME280;1001;48.87406500;9.59633600;2022-07-29T11:40:17;95051.47;;;25.42;56.56
2000;BME280;1001;48.87406500;9.59633600;2022-07-29T11:42:46;95048.91;;;25.17;57.29
2000;BME280;1001;48.87406500;9.59633600;2022-07-29T11:45:17;95054.31;;;25.08;57.70
2000;BME280;1001;48.87406500;9.59633600;2022-07-29T11:47:50;95064.91;;;24.87;58.90
2000;BME280;1001;48.87406500;9.59633600;2022-07-29T11:50:27;95065.41;;;24.72;61.02
2000;BME280;1001;48.87406500;9.59633600;2022-07-29T11:52:55;95061.34;;;24.58;61.36
2000;BME280;1001;48.87406500;9.59633600;2022-07-29T11:55:23;95054.28;;;24.27;61.25